createdAt,value
2023-04-05T00:02:13.819Z,11.51
2023-04-05T00:04:52.104Z,11.35
2023-04-05T00:07:19.335Z,11.78
2023-04-05T00:09:46.197Z,12.18
2023-04-05T00:12:12.561Z,12.11
2023-04-05T00:14:39.004Z,11.62
2023-04-05T00:17:05.550Z,11.94
2023-04-05T00:19:34.035Z,11.98
2023-04-05T00:22:00.633Z,12.07
2023-04-05T00:24:29.479Z,10.50
2023-04-05T00:26:56.782Z,11.73
2023-04-05T00:29:23.344Z,12.01
2023-04-05T00:31:49.929Z,11.43
2023-04-05T00:34:16.608Z,10.64
2023-04-05T00:36:42.977Z,10.80
2023-04-05T00:39:09.358Z,11.62
2023-04-05T00:41:36.701Z,11.87
2023-04-05T00:44:03.908Z,12.20
2023-04-05T00:46:30.589Z,11.89
2023-04-05T00:48:57.066Z,12.15
2023-04-05T00:51:24.114Z,11.92
2023-04-05T00:53:52.832Z,11.80
2023-04-05T00:56:21.625Z,11.59
2023-04-05T00:58:48.650Z,11.47
2023-04-05T01:01:22.413Z,11.50
2023-04-05T01:04:02.982Z,11.37
2023-04-05T01:06:42.165Z,11.33
2023-04-05T01:09:31.137Z,11.21
2023-04-05T01:11:59.323Z,11.04
2023-04-05T01:14:25.717Z,10.99
2023-04-05T01:16:57.880Z,11.06
2023-04-05T01:19:28.925Z,10.85
2023-04-05T01:22:26.286Z,10.79
2023-04-05T01:25:31.123Z,10.87
2023-04-05T01:28:16.942Z,10.86
2023-04-05T01:30:50.002Z,10.92
2023-04-05T01:33:35.076Z,11.03
2023-04-05T01:36:27.000Z,11.11
2023-04-05T01:38:54.132Z,11.13
2023-04-05T01:41:21.699Z,10.45
2023-04-05T01:43:49.000Z,10.77
2023-04-05T01:46:15.519Z,11.31
2023-04-05T01:48:41.946Z,11.55
2023-04-05T01:51:08.346Z,11.37
2023-04-05T01:53:34.738Z,10.18
2023-04-05T01:56:01.738Z,10.78
2023-04-05T01:58:28.414Z,10.53
2023-04-05T02:00:58.536Z,10.80
2023-04-05T02:03:25.169Z,11.16
2023-04-05T02:05:52.041Z,11.50
2023-04-05T02:08:18.664Z,11.65
2023-04-05T02:10:45.759Z,11.23
2023-04-05T02:13:13.682Z,11.46
2023-04-05T02:15:40.613Z,10.01
2023-04-05T02:18:08.007Z,10.54
2023-04-05T02:20:34.642Z,10.43
2023-04-05T02:23:02.156Z,11.11
2023-04-05T02:25:28.686Z,11.39
2023-04-05T02:27:55.340Z,11.56
2023-04-05T02:30:21.741Z,11.44
2023-04-05T02:32:48.206Z,11.01
2023-04-05T02:35:17.117Z,11.19
2023-04-05T02:37:43.534Z,10.89
2023-04-05T02:40:14.858Z,10.85
2023-04-05T02:42:42.084Z,11.25
2023-04-05T02:45:08.761Z,11.47
2023-04-05T02:47:35.271Z,11.26
2023-04-05T02:50:01.803Z,11.23
2023-04-05T02:52:28.422Z,11.31
2023-04-05T02:54:54.856Z,11.18
2023-04-05T02:57:21.309Z,11.31
2023-04-05T02:59:47.763Z,11.27
2023-04-05T03:02:14.151Z,11.41
2023-04-05T03:04:41.052Z,11.31
2023-04-05T03:07:08.021Z,10.98
2023-04-05T03:09:34.716Z,10.92
2023-04-05T03:12:02.402Z,10.56
2023-04-05T03:14:28.936Z,10.93
2023-04-05T03:16:55.358Z,10.30
2023-04-05T03:19:22.471Z,10.24
2023-04-05T03:21:49.010Z,10.87
2023-04-05T03:24:16.098Z,10.81
2023-04-05T03:26:46.314Z,10.82
2023-04-05T03:29:12.800Z,10.89
2023-04-05T03:31:39.216Z,11.04
2023-04-05T03:34:05.674Z,11.01
2023-04-05T03:36:41.816Z,11.04
2023-04-05T03:39:12.464Z,11.11
2023-04-05T03:41:41.907Z,10.95
2023-04-05T03:44:09.001Z,10.79
2023-04-05T03:46:37.862Z,10.64
2023-04-05T03:49:04.684Z,10.41
2023-04-05T03:51:31.204Z,10.36
2023-04-05T03:53:57.646Z,10.32
2023-04-05T03:56:24.084Z,10.23
2023-04-05T03:58:50.684Z,10.06
2023-04-05T04:01:17.062Z,10.00
2023-04-05T04:03:43.382Z,9.86
2023-04-05T04:06:09.764Z,10.09
2023-04-05T04:08:36.336Z,10.05
2023-04-05T04:11:02.663Z,9.66
2023-04-05T04:13:28.960Z,10.06
2023-04-05T04:15:55.317Z,10.13
2023-04-05T04:18:21.673Z,10.34
2023-04-05T04:20:48.171Z,10.51
2023-04-05T04:23:16.257Z,10.42
2023-04-05T04:25:46.080Z,10.50
2023-04-05T04:28:12.988Z,10.36
2023-04-05T04:30:39.426Z,10.41
2023-04-05T04:33:09.133Z,10.33
2023-04-05T04:35:38.911Z,9.50
2023-04-05T04:38:06.015Z,9.77
2023-04-05T04:40:40.599Z,9.75
2023-04-05T04:43:10.179Z,10.18
2023-04-05T04:45:37.781Z,10.29
2023-04-05T04:48:08.165Z,9.75
2023-04-05T04:50:35.245Z,10.04
2023-04-05T04:53:02.145Z,10.01
2023-04-05T04:55:28.921Z,9.93
2023-04-05T04:57:55.801Z,9.78
2023-04-05T05:00:23.863Z,9.73
2023-04-05T05:02:53.842Z,9.80
2023-04-05T05:05:22.853Z,10.05
2023-04-05T05:07:49.795Z,10.13
2023-04-05T05:10:16.523Z,10.18
2023-04-05T05:12:43.260Z,10.09
2023-04-05T05:15:10.228Z,10.12
2023-04-05T05:17:37.445Z,10.18
2023-04-05T05:20:10.678Z,10.03
2023-04-05T05:22:40.501Z,10.31
2023-04-05T05:25:08.692Z,10.26
2023-04-05T05:27:35.285Z,10.41
2023-04-05T05:30:02.066Z,9.86
2023-04-05T05:32:28.849Z,10.46
2023-04-05T05:34:55.325Z,10.75
2023-04-05T05:37:40.363Z,10.85
2023-04-05T05:40:07.603Z,10.82
2023-04-05T05:42:34.157Z,10.79
2023-04-05T05:45:05.324Z,10.85
2023-04-05T05:47:32.391Z,11.22
2023-04-05T05:49:58.895Z,11.25
2023-04-05T05:52:25.314Z,11.35
2023-04-05T05:54:51.915Z,11.46
2023-04-05T05:57:18.326Z,11.57
2023-04-05T05:59:44.708Z,11.52
2023-04-05T06:02:11.363Z,11.48
2023-04-05T06:04:37.974Z,11.75
2023-04-05T06:07:04.552Z,11.85
2023-04-05T06:09:33.832Z,11.86
2023-04-05T06:12:01.003Z,11.97
2023-04-05T06:14:28.951Z,12.08
2023-04-05T06:16:55.799Z,12.21
2023-04-05T06:19:22.477Z,12.31
2023-04-05T06:21:48.894Z,12.38
2023-04-05T06:24:15.371Z,12.25
2023-04-05T06:26:41.837Z,12.42
2023-04-05T06:29:08.524Z,12.54
2023-04-05T06:31:36.105Z,12.79
2023-04-05T06:34:02.930Z,13.00
2023-04-05T06:36:34.152Z,12.98
2023-04-05T06:39:00.995Z,12.94
2023-04-05T06:41:30.656Z,13.19
2023-04-05T06:43:57.089Z,13.15
2023-04-05T06:46:24.099Z,13.28
2023-04-05T06:48:52.118Z,13.29
2023-04-05T06:51:18.790Z,13.62
2023-04-05T06:53:45.354Z,13.66
2023-04-05T06:56:12.341Z,13.87
2023-04-05T06:58:38.831Z,14.03
2023-04-05T07:01:06.027Z,14.11
2023-04-05T07:03:32.961Z,14.35
2023-04-05T07:06:00.516Z,14.49
2023-04-05T07:08:28.019Z,14.23
2023-04-05T07:10:55.158Z,14.12
2023-04-05T07:13:22.998Z,14.38
2023-04-05T07:15:49.523Z,14.09
2023-04-05T07:18:15.943Z,14.25
2023-04-05T07:20:42.661Z,14.56
2023-04-05T07:23:09.620Z,14.93
2023-04-05T07:25:36.114Z,14.79
2023-04-05T07:28:02.903Z,14.88
2023-04-05T07:30:32.037Z,14.60
2023-04-05T07:32:58.607Z,14.35
2023-04-05T07:35:25.376Z,13.78
2023-04-05T07:37:52.325Z,13.98
2023-04-05T07:40:18.946Z,14.36
2023-04-05T07:42:45.643Z,13.50
2023-04-05T07:45:12.081Z,13.70
2023-04-05T07:47:38.522Z,14.31
2023-04-05T07:50:07.068Z,13.92
2023-04-05T07:52:33.526Z,14.25
2023-04-05T07:55:00.161Z,14.81
2023-04-05T07:57:26.569Z,14.41
2023-04-05T07:59:54.837Z,13.98
2023-04-05T08:02:21.498Z,14.36
2023-04-05T08:04:48.047Z,14.58
2023-04-05T08:07:14.611Z,14.55
2023-04-05T08:09:41.594Z,14.50
2023-04-05T08:12:08.112Z,15.27
2023-04-05T08:14:34.513Z,14.55
2023-04-05T08:17:01.175Z,14.55
2023-04-05T08:19:27.729Z,14.95
2023-04-05T08:21:54.169Z,15.17
2023-04-05T08:24:20.620Z,15.64
2023-04-05T08:26:47.183Z,16.19
2023-04-05T08:29:13.609Z,15.73
2023-04-05T08:31:40.083Z,16.11
2023-04-05T08:34:08.322Z,16.54
2023-04-05T08:36:34.815Z,16.86
2023-04-05T08:39:01.183Z,16.64
2023-04-05T08:41:34.238Z,16.47
2023-04-05T08:44:05.476Z,16.33
2023-04-05T08:46:34.478Z,17.44
2023-04-05T08:49:06.040Z,17.21
2023-04-05T08:51:33.328Z,17.25
2023-04-05T08:54:00.934Z,16.87
2023-04-05T08:56:32.523Z,17.85
2023-04-05T08:59:03.769Z,18.08
2023-04-05T09:01:31.819Z,18.07
2023-04-05T09:04:01.140Z,16.88
2023-04-05T09:06:28.715Z,18.21
2023-04-05T09:08:58.507Z,18.56
2023-04-05T09:11:25.664Z,18.76
2023-04-05T09:13:52.153Z,18.48
2023-04-05T09:16:19.554Z,18.61
2023-04-05T09:18:45.981Z,19.28
2023-04-05T09:21:13.318Z,19.10
2023-04-05T09:23:52.088Z,19.80
2023-04-05T09:26:24.131Z,19.42
2023-04-05T09:28:50.998Z,19.13
2023-04-05T09:31:34.653Z,18.08
2023-04-05T09:34:05.441Z,19.05
2023-04-05T09:36:35.892Z,18.98
2023-04-05T09:39:07.030Z,19.67
2023-04-05T09:41:34.790Z,19.43
2023-04-05T09:44:01.361Z,19.64
2023-04-05T09:46:39.997Z,19.24
2023-04-05T09:49:09.280Z,19.80
2023-04-05T09:51:38.325Z,19.10
2023-04-05T09:54:04.937Z,18.42
2023-04-05T09:56:39.492Z,16.98
2023-04-05T09:59:11.336Z,16.81
2023-04-05T10:01:41.200Z,16.95
2023-04-05T10:04:08.143Z,15.99
2023-04-05T10:06:44.003Z,16.12
2023-04-05T10:09:12.054Z,16.41
2023-04-05T10:11:38.960Z,16.59
2023-04-05T10:14:07.188Z,16.78
2023-04-05T10:16:38.772Z,18.09
2023-04-05T10:19:06.354Z,17.47
2023-04-05T10:21:35.865Z,18.20
2023-04-05T10:24:27.130Z,18.05
2023-04-05T10:27:06.515Z,19.40
2023-04-05T10:29:41.940Z,20.20
2023-04-05T10:32:23.669Z,20.01
2023-04-05T10:34:57.692Z,20.26
2023-04-05T10:37:48.381Z,20.89
2023-04-05T10:40:16.477Z,19.94
2023-04-05T10:42:46.352Z,19.45
2023-04-05T10:45:15.772Z,19.65
2023-04-05T10:47:58.229Z,19.29
2023-04-05T10:50:25.460Z,19.22
2023-04-05T10:52:53.197Z,18.63
2023-04-05T10:55:21.517Z,19.58
2023-04-05T10:57:48.954Z,20.11
2023-04-05T11:00:15.851Z,20.77
2023-04-05T11:02:42.713Z,21.04
2023-04-05T11:05:33.825Z,19.41
2023-04-05T11:08:04.001Z,19.64
2023-04-05T11:10:30.683Z,19.93
2023-04-05T11:12:57.224Z,17.80
2023-04-05T11:15:29.893Z,17.34
2023-04-05T11:18:28.889Z,17.82
2023-04-05T11:21:07.753Z,17.28
2023-04-05T11:24:00.713Z,17.84
2023-04-05T11:26:48.818Z,17.77
2023-04-05T11:29:16.032Z,18.78
2023-04-05T11:32:01.670Z,18.11
2023-04-05T11:34:28.240Z,16.73
2023-04-05T11:36:55.004Z,17.69
2023-04-05T11:39:21.480Z,18.56
2023-04-05T11:42:23.160Z,19.85
2023-04-05T11:44:51.683Z,19.97
2023-04-05T11:47:21.426Z,19.60
2023-04-05T11:49:51.702Z,20.08
2023-04-05T11:52:19.745Z,20.35
2023-04-05T11:54:46.953Z,20.69
2023-04-05T11:57:16.100Z,19.36
2023-04-05T11:59:42.837Z,20.11
2023-04-05T12:02:09.496Z,21.04
2023-04-05T12:04:37.022Z,20.63
2023-04-05T12:07:19.899Z,20.50
2023-04-05T12:10:08.241Z,20.34
2023-04-05T12:12:39.978Z,20.72
2023-04-05T12:15:11.697Z,21.53
2023-04-05T12:17:49.393Z,22.29
2023-04-05T12:20:17.399Z,22.57
2023-04-05T12:22:45.394Z,22.31
2023-04-05T12:25:12.226Z,21.88
2023-04-05T12:27:39.288Z,20.85
2023-04-05T12:30:17.543Z,21.30
2023-04-05T12:32:54.924Z,21.26
2023-04-05T12:35:32.154Z,21.36
2023-04-05T12:37:59.472Z,21.68
2023-04-05T12:40:27.700Z,20.53
2023-04-05T12:43:10.090Z,20.09
2023-04-05T12:45:43.717Z,20.28
2023-04-05T12:48:13.601Z,21.65
2023-04-05T12:50:45.004Z,22.00
2023-04-05T12:53:20.239Z,22.62
2023-04-05T12:55:52.064Z,23.03
2023-04-05T12:58:19.738Z,23.37
2023-04-05T13:00:46.611Z,22.31
2023-04-05T13:03:21.474Z,19.90
2023-04-05T13:05:51.055Z,18.33
2023-04-05T13:08:21.319Z,18.68
2023-04-05T13:10:49.304Z,18.33
2023-04-05T13:13:17.051Z,19.13
2023-04-05T13:15:44.281Z,17.38
2023-04-05T13:18:10.930Z,18.18
2023-04-05T13:20:37.695Z,18.33
2023-04-05T13:23:04.151Z,17.55
2023-04-05T13:25:30.782Z,18.15
2023-04-05T13:27:57.277Z,18.83
2023-04-05T13:30:23.714Z,19.54
2023-04-05T13:32:50.237Z,20.34
2023-04-05T13:35:16.650Z,20.23
2023-04-05T13:37:43.095Z,19.93
2023-04-05T13:40:09.956Z,19.98
2023-04-05T13:42:36.468Z,20.65
2023-04-05T13:45:03.061Z,20.67
2023-04-05T13:47:29.537Z,21.01
2023-04-05T13:49:56.319Z,21.24
2023-04-05T13:52:22.866Z,22.03
2023-04-05T13:54:49.304Z,22.66
2023-04-05T13:57:28.661Z,22.73
2023-04-05T13:59:55.416Z,22.49
2023-04-05T14:02:25.731Z,23.10
2023-04-05T14:04:53.121Z,23.55
2023-04-05T14:07:20.617Z,23.58
2023-04-05T14:09:47.075Z,22.63
2023-04-05T14:14:40.477Z,23.11
2023-04-05T14:17:07.693Z,22.94
2023-04-05T14:19:34.231Z,21.79
2023-04-05T14:22:00.605Z,22.65
2023-04-05T14:24:27.051Z,22.89
2023-04-05T14:26:53.814Z,22.64
2023-04-05T14:29:20.423Z,22.03
2023-04-05T14:31:46.951Z,22.62
2023-04-05T14:34:13.863Z,21.82
2023-04-05T14:36:40.953Z,21.76
2023-04-05T14:39:07.338Z,21.37
2023-04-05T14:41:34.909Z,21.22
2023-04-05T14:44:01.403Z,20.85
2023-04-05T14:46:27.780Z,21.10
2023-04-05T14:48:54.239Z,21.18
2023-04-05T14:51:20.744Z,21.13
2023-04-05T14:53:47.190Z,21.39
2023-04-05T14:56:13.836Z,20.89
2023-04-05T14:58:40.310Z,18.80
2023-04-05T15:01:09.850Z,19.62
2023-04-05T15:03:37.611Z,19.87
2023-04-05T15:06:05.237Z,20.03
2023-04-05T15:08:32.045Z,19.21
2023-04-05T15:10:58.685Z,18.41
2023-04-05T15:13:26.798Z,18.25
2023-04-05T15:15:53.607Z,18.37
2023-04-05T15:18:20.277Z,19.01
2023-04-05T15:20:46.802Z,20.10
2023-04-05T15:23:13.539Z,20.27
2023-04-05T15:25:40.048Z,20.22
2023-04-05T15:28:07.149Z,21.23
2023-04-05T15:30:33.645Z,21.66
2023-04-05T15:33:00.473Z,21.79
2023-04-05T15:35:27.112Z,21.75
2023-04-05T15:37:53.524Z,21.56
2023-04-05T15:40:20.325Z,21.92
2023-04-05T15:42:46.867Z,22.47
2023-04-05T15:45:13.559Z,22.86
2023-04-05T15:47:40.322Z,22.89
2023-04-05T15:50:07.451Z,22.23
2023-04-05T15:52:35.543Z,21.25
2023-04-05T15:55:02.444Z,20.46
2023-04-05T15:57:29.144Z,18.91
2023-04-05T15:59:55.659Z,19.17
2023-04-05T16:02:22.148Z,18.79
2023-04-05T16:04:48.870Z,18.05
2023-04-05T16:07:16.539Z,16.77
2023-04-05T16:09:43.063Z,17.69
2023-04-05T16:12:09.513Z,18.01
2023-04-05T16:14:36.089Z,18.57
2023-04-05T16:17:02.914Z,18.85
2023-04-05T16:19:31.586Z,18.83
2023-04-05T16:21:58.169Z,18.16
2023-04-05T16:24:26.666Z,18.12
2023-04-05T16:26:53.395Z,18.96
2023-04-05T16:29:19.804Z,18.69
2023-04-05T16:31:47.401Z,17.11
2023-04-05T16:34:14.138Z,17.41
2023-04-05T16:36:41.353Z,18.36
2023-04-05T16:39:07.945Z,18.80
2023-04-05T16:41:36.127Z,19.20
2023-04-05T16:44:03.286Z,18.55
2023-04-05T16:46:32.078Z,19.54
2023-04-05T16:48:59.739Z,19.18
2023-04-05T16:51:27.602Z,19.81
2023-04-05T16:53:54.535Z,20.03
2023-04-05T16:56:21.332Z,20.48
2023-04-05T16:58:47.833Z,20.29
2023-04-05T17:01:14.282Z,20.28
2023-04-05T17:03:42.366Z,20.21
2023-04-05T17:06:11.078Z,20.24
2023-04-05T17:08:37.445Z,19.79
2023-04-05T17:11:04.091Z,20.00
2023-04-05T17:13:30.558Z,19.97
2023-04-05T17:15:57.030Z,19.56
2023-04-05T17:18:23.546Z,19.36
2023-04-05T17:20:49.972Z,18.22
2023-04-05T17:23:16.469Z,18.94
2023-04-05T17:25:43.026Z,18.90
2023-04-05T17:28:09.781Z,19.40
2023-04-05T17:30:36.266Z,18.63
2023-04-05T17:33:02.674Z,17.96
2023-04-05T17:35:29.243Z,18.10
2023-04-05T17:37:55.675Z,19.17
2023-04-05T17:40:22.200Z,19.78
2023-04-05T17:42:48.604Z,19.74
2023-04-05T17:45:15.013Z,19.67
2023-04-05T17:47:41.726Z,19.80
2023-04-05T17:50:08.554Z,19.76
2023-04-05T17:52:34.937Z,20.07
2023-04-05T17:55:01.751Z,19.95
2023-04-05T17:57:28.226Z,19.66
2023-04-05T17:59:54.973Z,19.36
2023-04-05T18:02:21.544Z,19.46
2023-04-05T18:04:48.187Z,19.77
2023-04-05T18:07:14.589Z,19.51
2023-04-05T18:09:42.386Z,19.57
2023-04-05T18:12:09.372Z,19.89
2023-04-05T18:14:36.891Z,19.75
2023-04-05T18:17:09.380Z,19.09
2023-04-05T18:19:35.912Z,18.74
2023-04-05T18:22:02.357Z,18.38
2023-04-05T18:24:29.448Z,18.32
2023-04-05T18:26:56.049Z,18.07
2023-04-05T18:29:28.034Z,18.04
2023-04-05T18:31:55.751Z,17.91
2023-04-05T18:34:22.267Z,17.99
2023-04-05T18:36:48.660Z,18.01
2023-04-05T18:39:15.262Z,17.68
2023-04-05T18:41:41.667Z,17.73
2023-04-05T18:44:08.834Z,17.51
2023-04-05T18:46:35.385Z,16.96
2023-04-05T18:49:01.914Z,17.01
2023-04-05T18:51:28.537Z,17.17
2023-04-05T18:53:54.953Z,17.24
2023-04-05T18:56:21.416Z,16.82
2023-04-05T18:58:47.977Z,16.93
2023-04-05T19:01:16.009Z,16.94
2023-04-05T19:03:42.850Z,16.35
2023-04-05T19:06:09.710Z,16.61
2023-04-05T19:08:36.176Z,16.79
2023-04-05T19:11:02.682Z,16.16
2023-04-05T19:13:29.125Z,15.83
2023-04-05T19:15:55.720Z,15.68
2023-04-05T19:18:25.670Z,15.26
2023-04-05T19:20:57.086Z,15.28
2023-04-05T19:23:25.461Z,15.31
2023-04-05T19:25:52.104Z,15.74
2023-04-05T19:28:18.498Z,15.27
2023-04-05T19:30:46.177Z,15.45
2023-04-05T19:33:13.174Z,15.46
2023-04-05T19:35:40.027Z,15.40
2023-04-05T19:38:06.528Z,15.56
2023-04-05T19:40:33.240Z,15.62
2023-04-05T19:43:01.856Z,15.01
2023-04-05T19:45:32.573Z,14.03
2023-04-05T19:48:00.897Z,14.46
2023-04-05T19:50:45.566Z,14.37
2023-04-05T19:53:32.283Z,14.25
2023-04-05T19:55:58.655Z,14.38
2023-04-05T19:58:28.218Z,15.17
2023-04-05T20:00:55.411Z,14.60
2023-04-05T20:03:32.644Z,14.82
2023-04-05T20:06:10.339Z,15.21
2023-04-05T20:08:39.156Z,15.35
2023-04-05T20:11:15.956Z,15.29
2023-04-05T20:13:44.620Z,15.82
2023-04-05T20:16:12.592Z,15.60
2023-04-05T20:18:39.473Z,15.07
2023-04-05T20:21:06.876Z,15.30
2023-04-05T20:23:33.340Z,14.53
2023-04-05T20:25:59.796Z,14.53
2023-04-05T20:28:35.566Z,15.19
2023-04-05T20:31:02.808Z,15.38
2023-04-05T20:33:41.856Z,15.56
2023-04-05T20:36:11.781Z,14.04
2023-04-05T20:38:42.582Z,14.57
2023-04-05T20:41:12.802Z,14.42
2023-04-05T20:43:40.011Z,14.41
2023-04-05T20:46:06.835Z,14.73
2023-04-05T20:48:34.555Z,14.94
2023-04-05T20:51:02.033Z,14.25
2023-04-05T20:53:28.738Z,14.20
2023-04-05T20:55:55.861Z,14.46
2023-04-05T20:58:22.567Z,14.36
2023-04-05T21:00:49.096Z,15.09
2023-04-05T21:03:16.149Z,15.09
2023-04-05T21:05:42.700Z,15.28
2023-04-05T21:08:09.189Z,14.95
2023-04-05T21:10:35.576Z,15.19
2023-04-05T21:13:02.027Z,15.37
2023-04-05T21:15:31.214Z,15.12
2023-04-05T21:18:00.635Z,14.86
2023-04-05T21:20:30.865Z,14.71
2023-04-05T21:22:58.299Z,14.52
2023-04-05T21:25:24.844Z,14.57
2023-04-05T21:27:51.695Z,14.34
2023-04-05T21:30:18.304Z,14.13
2023-04-05T21:32:44.942Z,13.82
2023-04-05T21:35:11.828Z,13.89
2023-04-05T21:37:38.350Z,13.67
2023-04-05T21:40:05.327Z,13.65
2023-04-05T21:42:31.856Z,13.49
2023-04-05T21:44:58.165Z,13.42
2023-04-05T21:47:24.840Z,13.55
2023-04-05T21:49:52.728Z,13.38
2023-04-05T21:52:19.149Z,13.19
2023-04-05T21:54:46.020Z,13.18
2023-04-05T21:57:12.440Z,13.04
2023-04-05T21:59:38.933Z,13.03
2023-04-05T22:02:06.817Z,12.96
2023-04-05T22:04:33.708Z,13.04
2023-04-05T22:07:00.273Z,13.25
2023-04-05T22:09:28.112Z,13.40
2023-04-05T22:11:54.791Z,13.46
2023-04-05T22:14:21.240Z,13.30
2023-04-05T22:16:47.975Z,13.07
2023-04-05T22:19:14.544Z,13.04
2023-04-05T22:21:41.267Z,12.96
2023-04-05T22:24:08.830Z,12.92
2023-04-05T22:26:35.655Z,12.92
2023-04-05T22:29:02.693Z,12.87
2023-04-05T22:31:29.321Z,12.81
2023-04-05T22:33:56.249Z,12.78
2023-04-05T22:36:22.763Z,12.85
2023-04-05T22:38:49.325Z,12.69
2023-04-05T22:41:16.761Z,12.78
2023-04-05T22:43:43.179Z,12.52
2023-04-05T22:46:10.421Z,12.65
2023-04-05T22:48:37.098Z,12.64
2023-04-05T22:51:03.738Z,12.75
2023-04-05T22:53:30.577Z,12.96
2023-04-05T22:55:57.136Z,12.89
2023-04-05T22:58:23.512Z,12.89
2023-04-05T23:00:50.177Z,12.36
2023-04-05T23:03:16.564Z,12.30
2023-04-05T23:05:43.088Z,12.35
2023-04-05T23:08:09.524Z,12.16
2023-04-05T23:10:35.973Z,12.25
2023-04-05T23:13:02.379Z,12.38
2023-04-05T23:15:28.746Z,12.57
2023-04-05T23:17:55.412Z,12.24
2023-04-05T23:20:21.876Z,12.36
2023-04-05T23:22:48.305Z,12.52
2023-04-05T23:25:14.791Z,12.63
2023-04-05T23:27:41.189Z,12.56
2023-04-05T23:30:08.115Z,12.51
2023-04-05T23:32:34.571Z,12.71
2023-04-05T23:35:01.000Z,12.52
2023-04-05T23:37:27.390Z,12.44
2023-04-05T23:39:53.753Z,12.26
2023-04-05T23:42:20.156Z,11.81
2023-04-05T23:44:46.578Z,12.00
2023-04-05T23:47:12.978Z,12.45
2023-04-05T23:49:39.369Z,12.32
2023-04-05T23:52:05.833Z,12.24
2023-04-05T23:54:32.231Z,12.13
2023-04-05T23:56:58.694Z,12.23
2023-04-05T23:59:25.556Z,12.14
